createdAt,value
2017-05-29T00:00:15.656Z,1010.35
2017-05-29T00:01:25.266Z,1010.35
2017-05-29T00:02:34.570Z,1010.33
2017-05-29T00:03:44.711Z,1010.36
2017-05-29T00:31:48.784Z,1010.21
2017-05-29T00:32:58.714Z,1010.16
2017-05-29T00:34:08.358Z,1010.18
2017-05-29T00:35:17.374Z,1010.17
2017-05-29T00:36:27.622Z,1010.19
2017-05-29T00:37:37.528Z,1010.17
2017-05-29T00:38:47.436Z,1010.1
2017-05-29T00:39:57.665Z,1010.11
2017-05-29T00:41:07.290Z,1010.08
2017-05-29T00:42:17.228Z,1010.12
2017-05-29T00:43:26.984Z,1010.15
2017-05-29T00:44:36.906Z,1010.13
2017-05-29T00:45:46.520Z,1010.14
2017-05-29T00:46:55.839Z,1010.14
2017-05-29T00:48:06.061Z,1010.12
2017-05-29T00:49:16.130Z,1010.12
2017-05-29T00:50:26.370Z,1010.09
2017-05-29T00:51:36.292Z,1010.11
2017-05-29T00:52:46.516Z,1010.08
2017-05-29T00:53:56.750Z,1010.05
2017-05-29T00:55:06.161Z,1010.03
2017-05-29T00:56:15.459Z,1010.04
2017-05-29T00:57:25.378Z,1010.02
2017-05-29T00:58:34.988Z,1010.06
2017-05-29T00:59:44.915Z,1010.08
2017-05-29T01:00:55.261Z,1010.09
2017-05-29T01:02:05.476Z,1010.12
2017-05-29T01:03:14.814Z,1010.07
2017-05-29T01:04:24.433Z,1010.09
2017-05-29T01:05:34.657Z,1010.14
2017-05-29T01:06:44.994Z,1010.12
2017-05-29T01:07:54.943Z,1010.13
2017-05-29T01:09:04.881Z,1010.12
2017-05-29T01:10:15.121Z,1010.13
2017-05-29T01:11:25.337Z,1010.14
2017-05-29T01:12:35.713Z,1010.1
2017-05-29T01:13:45.646Z,1010.11
2017-05-29T01:14:55.870Z,1010.12
2017-05-29T01:16:05.162Z,1010.08
2017-05-29T01:17:14.779Z,1010.13
2017-05-29T01:18:24.755Z,1010.12
2017-05-29T01:19:34.675Z,1010.13
2017-05-29T01:20:44.279Z,1010.14
2017-05-29T01:21:53.880Z,1010.15
2017-05-29T01:23:03.791Z,1010.15
2017-05-29T01:24:13.719Z,1010.21
2017-05-29T01:25:23.321Z,1010.21
2017-05-29T01:26:33.231Z,1010.19
2017-05-29T01:27:43.449Z,1010.24
2017-05-29T01:28:53.362Z,1010.2
2017-05-29T01:30:03.277Z,1010.2
2017-05-29T01:31:12.886Z,1010.17
2017-05-29T01:32:22.817Z,1010.17
2017-05-29T01:33:32.734Z,1010.17
2017-05-29T01:34:41.734Z,1010.19
2017-05-29T01:35:51.747Z,1010.17
2017-05-29T01:37:01.353Z,1010.15
2017-05-29T01:38:10.657Z,1010.11
2017-05-29T01:39:20.575Z,1010.16
2017-05-29T01:40:30.191Z,1010.15
2017-05-29T01:41:39.868Z,1010.16
2017-05-29T01:42:50.096Z,1010.16
2017-05-29T01:44:00.029Z,1010.16
2017-05-29T01:45:09.947Z,1010.18
2017-05-29T01:46:19.875Z,1010.16
2017-05-29T01:47:29.634Z,1010.16
2017-05-29T01:48:38.949Z,1010.14
2017-05-29T01:49:49.196Z,1010.12
2017-05-29T01:50:59.433Z,1010.13
2017-05-29T01:52:09.347Z,1010.08
2017-05-29T01:53:18.707Z,1010.07
2017-05-29T01:54:28.319Z,1010.08
2017-05-29T01:55:37.929Z,1010.07
2017-05-29T01:56:47.540Z,1010.01
2017-05-29T01:57:57.221Z,1010.05
2017-05-29T01:59:06.974Z,1010.05
2017-05-29T02:00:16.576Z,1010.04
2017-05-29T02:01:26.807Z,1010.04
2017-05-29T02:02:36.789Z,1009.99
2017-05-29T02:03:46.693Z,1009.95
2017-05-29T02:04:57.060Z,1009.94
2017-05-29T02:06:07.269Z,1009.95
2017-05-29T02:07:17.486Z,1009.92
2017-05-29T02:08:26.796Z,1009.93
2017-05-29T02:09:36.705Z,1009.91
2017-05-29T02:10:46.630Z,1009.91
2017-05-29T02:11:56.855Z,1009.91
2017-05-29T02:13:06.794Z,1009.95
2017-05-29T02:14:16.112Z,1009.93
2017-05-29T02:15:25.718Z,1009.95
2017-05-29T02:16:36.275Z,1009.93
2017-05-29T02:17:45.576Z,1009.94
2017-05-29T02:18:55.198Z,1009.93
2017-05-29T02:20:04.819Z,1009.95
2017-05-29T02:21:14.761Z,1009.94
2017-05-29T02:22:24.825Z,1009.92
2017-05-29T02:23:34.739Z,1009.89
2017-05-29T02:24:44.657Z,1009.93
2017-05-29T02:25:54.878Z,1009.87
2017-05-29T02:27:04.182Z,1009.85
2017-05-29T02:28:14.110Z,1009.82
2017-05-29T02:29:23.114Z,1009.83
2017-05-29T02:30:33.017Z,1009.8
2017-05-29T02:31:43.220Z,1009.78
2017-05-29T02:32:53.441Z,1009.79
2017-05-29T02:34:03.049Z,1009.8
2017-05-29T02:35:13.282Z,1009.78
2017-05-29T02:36:23.421Z,1009.77
2017-05-29T02:37:33.767Z,1009.72
2017-05-29T02:38:43.681Z,1009.69
2017-05-29T02:39:53.587Z,1009.66
2017-05-29T02:41:02.889Z,1009.67
2017-05-29T02:42:12.804Z,1009.65
2017-05-29T02:43:23.036Z,1009.67
2017-05-29T02:44:32.637Z,1009.63
2017-05-29T02:45:42.241Z,1009.65
2017-05-29T02:46:52.161Z,1009.68
2017-05-29T02:48:02.379Z,1009.66
2017-05-29T02:49:11.991Z,1009.68
2017-05-29T02:50:21.931Z,1009.68
2017-05-29T02:51:31.694Z,1009.67
2017-05-29T02:52:41.615Z,1009.64
2017-05-29T02:53:51.520Z,1009.7
2017-05-29T02:55:01.125Z,1009.65
2017-05-29T02:56:11.371Z,1009.66
2017-05-29T02:57:21.666Z,1009.69
2017-05-29T02:58:31.580Z,1009.67
2017-05-29T02:59:41.827Z,1009.66
2017-05-29T03:00:52.058Z,1009.72
2017-05-29T03:02:01.987Z,1009.67
2017-05-29T03:03:12.302Z,1009.69
2017-05-29T03:04:22.514Z,1009.67
2017-05-29T03:05:32.123Z,1009.63
2017-05-29T03:06:42.041Z,1009.64
2017-05-29T03:07:52.266Z,1009.62
2017-05-29T03:09:02.550Z,1009.62
2017-05-29T03:10:11.843Z,1009.58
2017-05-29T03:11:21.769Z,1009.61
2017-05-29T03:12:31.695Z,1009.54
2017-05-29T03:13:41.620Z,1009.6
2017-05-29T03:14:51.726Z,1009.57
2017-05-29T03:16:01.659Z,1009.58
2017-05-29T03:17:11.252Z,1009.58
2017-05-29T03:18:20.238Z,1009.56
2017-05-29T03:19:30.481Z,1009.57
2017-05-29T03:20:40.574Z,1009.58
2017-05-29T03:21:50.170Z,1009.54
2017-05-29T03:23:00.082Z,1009.46
2017-05-29T03:24:10.312Z,1009.46
2017-05-29T03:25:20.234Z,1009.43
2017-05-29T03:26:29.889Z,1009.38
2017-05-29T03:27:39.790Z,1009.4
2017-05-29T03:28:49.719Z,1009.36
2017-05-29T03:29:59.640Z,1009.33
2017-05-29T03:31:09.252Z,1009.3
2017-05-29T03:32:19.275Z,1009.26
2017-05-29T03:33:29.496Z,1009.28
2017-05-29T03:34:39.725Z,1009.25
2017-05-29T03:35:49.942Z,1009.22
2017-05-29T03:36:59.549Z,1009.19
2017-05-29T03:38:09.153Z,1009.21
2017-05-29T03:39:18.766Z,1009.17
2017-05-29T03:40:28.988Z,1009.2
2017-05-29T03:41:38.592Z,1009.19
2017-05-29T03:42:48.823Z,1009.21
2017-05-29T03:43:58.886Z,1009.2
2017-05-29T03:45:09.100Z,1009.17
2017-05-29T03:46:19.024Z,1009.16
2017-05-29T03:47:28.951Z,1009.16
2017-05-29T03:48:38.879Z,1009.16
2017-05-29T03:49:49.251Z,1009.16
2017-05-29T03:50:59.482Z,1009.17
2017-05-29T03:52:09.094Z,1009.17
2017-05-29T03:53:18.706Z,1009.16
2017-05-29T03:54:28.618Z,1009.18
2017-05-29T03:55:38.523Z,1009.21
2017-05-29T03:56:48.439Z,1009.2
2017-05-29T03:57:58.720Z,1009.17
2017-05-29T03:59:08.630Z,1009.18
2017-05-29T04:00:18.551Z,1009.14
2017-05-29T04:01:28.921Z,1009.14
2017-05-29T04:02:38.518Z,1009.14
2017-05-29T04:03:47.846Z,1009.11
2017-05-29T04:04:58.069Z,1009.12
2017-05-29T04:06:07.373Z,1009.1
2017-05-29T04:07:17.296Z,1009.09
2017-05-29T04:08:27.213Z,1009.1
2017-05-29T04:09:36.519Z,1009.15
2017-05-29T04:10:46.135Z,1009.1
2017-05-29T04:11:55.437Z,1009.08
2017-05-29T04:13:05.400Z,1009.07
2017-05-29T04:14:15.645Z,1009.1
2017-05-29T04:15:25.860Z,1009.08
2017-05-29T04:16:35.834Z,1009.08
2017-05-29T04:17:45.756Z,1009.05
2017-05-29T04:18:55.812Z,1009.05
2017-05-29T04:20:05.734Z,1009.06
2017-05-29T04:21:15.359Z,1009.03
2017-05-29T04:22:25.278Z,1009.07
2017-05-29T04:23:35.191Z,1009.07
2017-05-29T04:24:45.554Z,1009.06
2017-05-29T04:25:55.799Z,1009.05
2017-05-29T04:27:05.142Z,1009.06
2017-05-29T04:28:14.772Z,1009.03
2017-05-29T04:29:24.390Z,1009.03
2017-05-29T04:30:34.324Z,1009.05
2017-05-29T04:31:44.258Z,1009.04
2017-05-29T04:32:53.881Z,1009.07
2017-05-29T04:34:03.810Z,1009.02
2017-05-29T04:35:13.756Z,1009.02
2017-05-29T04:36:24.003Z,1009.04
2017-05-29T04:37:33.621Z,1009.04
2017-05-29T04:38:43.559Z,1009.05
2017-05-29T04:39:53.171Z,1009.05
2017-05-29T04:41:02.791Z,1009.02
2017-05-29T04:42:12.389Z,1009.04
2017-05-29T04:43:22.327Z,1008.99
2017-05-29T04:44:32.255Z,1008.99
2017-05-29T04:45:42.191Z,1008.99
2017-05-29T04:46:52.109Z,1008.94
2017-05-29T04:48:01.878Z,1008.91
2017-05-29T04:49:11.517Z,1008.91
2017-05-29T04:50:21.729Z,1008.91
2017-05-29T04:51:31.333Z,1008.94
2017-05-29T04:52:40.950Z,1008.9
2017-05-29T04:53:50.906Z,1008.94
2017-05-29T04:55:01.126Z,1008.91
2017-05-29T04:56:10.729Z,1008.91
2017-05-29T04:57:20.330Z,1008.92
2017-05-29T04:58:29.622Z,1008.93
2017-05-29T04:59:39.641Z,1008.86
2017-05-29T05:00:48.935Z,1008.85
2017-05-29T05:01:58.534Z,1008.87
2017-05-29T05:03:08.762Z,1008.88
2017-05-29T05:04:18.670Z,1008.83
2017-05-29T05:05:28.294Z,1008.86
2017-05-29T05:06:38.197Z,1008.83
2017-05-29T05:07:47.799Z,1008.84
2017-05-29T05:08:57.720Z,1008.79
2017-05-29T05:10:07.323Z,1008.75
2017-05-29T05:11:16.455Z,1008.77
2017-05-29T05:12:26.666Z,1008.77
2017-05-29T05:13:35.958Z,1008.74
2017-05-29T05:14:46.171Z,1008.72
2017-05-29T05:15:55.780Z,1008.71
2017-05-29T05:17:05.717Z,1008.73
2017-05-29T05:18:15.948Z,1008.76
2017-05-29T05:19:25.889Z,1008.67
2017-05-29T05:20:35.525Z,1008.76
2017-05-29T05:21:45.436Z,1008.76
2017-05-29T05:22:55.463Z,1008.75
2017-05-29T05:24:05.394Z,1008.77
2017-05-29T05:25:15.319Z,1008.81
2017-05-29T05:26:24.622Z,1008.8
2017-05-29T05:27:34.544Z,1008.81
2017-05-29T05:28:44.631Z,1008.79
2017-05-29T05:29:54.862Z,1008.76
2017-05-29T05:31:05.087Z,1008.75
2017-05-29T05:32:14.698Z,1008.75
2017-05-29T05:33:24.306Z,1008.77
2017-05-29T05:34:34.330Z,1008.79
2017-05-29T05:35:43.633Z,1008.77
2017-05-29T05:36:53.248Z,1008.73
2017-05-29T05:38:03.163Z,1008.73
2017-05-29T05:39:13.389Z,1008.74
2017-05-29T05:40:23.392Z,1008.73
2017-05-29T05:41:33.001Z,1008.7
2017-05-29T05:42:42.615Z,1008.66
2017-05-29T05:43:52.838Z,1008.61
2017-05-29T05:45:02.760Z,1008.65
2017-05-29T05:46:12.538Z,1008.63
2017-05-29T05:47:22.465Z,1008.65
2017-05-29T05:48:32.682Z,1008.66
2017-05-29T05:49:42.942Z,1008.68
2017-05-29T05:50:52.561Z,1008.68
2017-05-29T05:52:02.633Z,1008.7
2017-05-29T05:53:12.242Z,1008.66
2017-05-29T05:54:22.473Z,1008.65
2017-05-29T05:55:32.714Z,1008.65
2017-05-29T05:56:42.613Z,1008.64
2017-05-29T05:57:52.586Z,1008.65
2017-05-29T05:59:02.504Z,1008.66
2017-05-29T06:00:11.790Z,1008.67
2017-05-29T06:01:21.412Z,1008.64
2017-05-29T06:02:31.025Z,1008.66
2017-05-29T06:03:40.940Z,1008.68
2017-05-29T06:04:50.858Z,1008.73
2017-05-29T06:06:00.831Z,1008.67
2017-05-29T06:07:10.428Z,1008.64
2017-05-29T06:08:20.386Z,1008.66
2017-05-29T06:09:30.451Z,1008.67
2017-05-29T06:10:40.071Z,1008.65
2017-05-29T06:11:50.289Z,1008.66
2017-05-29T06:12:59.897Z,1008.73
2017-05-29T06:14:09.813Z,1008.75
2017-05-29T06:15:19.518Z,1008.76
2017-05-29T06:16:29.124Z,1008.74
2017-05-29T06:17:39.049Z,1008.71
2017-05-29T06:18:49.287Z,1008.71
2017-05-29T06:19:59.204Z,1008.74
2017-05-29T06:21:08.961Z,1008.69
2017-05-29T06:22:18.270Z,1008.73
2017-05-29T06:23:28.194Z,1008.7
2017-05-29T06:24:37.503Z,1008.68
2017-05-29T06:25:46.824Z,1008.74
2017-05-29T06:26:56.905Z,1008.74
2017-05-29T06:28:07.177Z,1008.74
2017-05-29T06:29:17.439Z,1008.74
2017-05-29T06:30:27.055Z,1008.74
2017-05-29T06:31:36.983Z,1008.77
2017-05-29T06:32:47.013Z,1008.7
2017-05-29T06:33:57.006Z,1008.69
2017-05-29T06:35:06.629Z,1008.69
2017-05-29T06:36:16.273Z,1008.69
2017-05-29T06:37:26.214Z,1008.68
2017-05-29T06:38:35.988Z,1008.7
2017-05-29T06:39:46.224Z,1008.76
2017-05-29T06:40:56.139Z,1008.73
2017-05-29T06:42:05.756Z,1008.72
2017-05-29T06:43:15.691Z,1008.73
2017-05-29T06:44:24.716Z,1008.72
2017-05-29T06:45:34.958Z,1008.71
2017-05-29T06:46:44.896Z,1008.64
2017-05-29T06:47:55.133Z,1008.67
2017-05-29T06:49:05.371Z,1008.66
2017-05-29T06:50:15.646Z,1008.62
2017-05-29T06:51:24.959Z,1008.62
2017-05-29T06:52:34.885Z,1008.64
2017-05-29T06:53:44.522Z,1008.61
2017-05-29T06:54:54.770Z,1008.6
2017-05-29T06:56:04.857Z,1008.54
2017-05-29T06:57:14.486Z,1008.58
2017-05-29T06:58:23.843Z,1008.59
2017-05-29T06:59:33.170Z,1008.62
2017-05-29T07:00:42.801Z,1008.6
2017-05-29T07:01:52.773Z,1008.57
2017-05-29T07:03:03.401Z,1008.58
2017-05-29T07:04:13.637Z,1008.54
2017-05-29T07:05:23.866Z,1008.51
2017-05-29T07:06:33.801Z,1008.54
2017-05-29T07:07:44.069Z,1008.48
2017-05-29T07:08:53.991Z,1008.44
2017-05-29T07:10:03.625Z,1008.42
2017-05-29T07:11:13.867Z,1008.44
2017-05-29T07:12:22.884Z,1008.41
2017-05-29T07:13:32.821Z,1008.43
2017-05-29T07:14:42.754Z,1008.44
2017-05-29T07:15:52.744Z,1008.43
2017-05-29T07:17:02.686Z,1008.42
2017-05-29T07:18:12.633Z,1008.42
2017-05-29T07:19:22.425Z,1008.43
2017-05-29T07:20:32.687Z,1008.44
2017-05-29T07:21:42.298Z,1008.42
2017-05-29T07:22:52.524Z,1008.42
2017-05-29T07:24:02.141Z,1008.39
2017-05-29T07:25:12.208Z,1008.44
2017-05-29T07:26:21.815Z,1008.42
2017-05-29T07:27:31.756Z,1008.42
2017-05-29T07:28:41.384Z,1008.44
2017-05-29T07:29:50.715Z,1008.41
2017-05-29T07:31:00.389Z,1008.42
2017-05-29T07:32:10.328Z,1008.44
2017-05-29T07:33:20.048Z,1008.42
2017-05-29T07:34:29.367Z,1008.39
2017-05-29T07:35:39.344Z,1008.41
2017-05-29T07:36:49.030Z,1008.37
2017-05-29T07:37:58.980Z,1008.43
2017-05-29T07:39:08.939Z,1008.43
2017-05-29T07:40:19.192Z,1008.4
2017-05-29T07:41:29.436Z,1008.43
2017-05-29T07:42:39.150Z,1008.36
2017-05-29T07:43:49.110Z,1008.36
2017-05-29T07:44:59.380Z,1008.38
2017-05-29T07:46:09.310Z,1008.42
2017-05-29T07:47:19.572Z,1008.42
2017-05-29T07:48:29.700Z,1008.43
2017-05-29T07:49:39.346Z,1008.42
2017-05-29T07:50:48.699Z,1008.42
2017-05-29T07:51:58.633Z,1008.43
2017-05-29T07:53:08.553Z,1008.37
2017-05-29T07:54:18.191Z,1008.37
2017-05-29T07:55:27.824Z,1008.39
2017-05-29T07:56:38.076Z,1008.41
2017-05-29T07:57:47.699Z,1008.42
2017-05-29T07:58:57.636Z,1008.4
2017-05-29T08:00:07.612Z,1008.38
2017-05-29T08:01:17.548Z,1008.37
2017-05-29T08:02:28.150Z,1008.32
2017-05-29T08:03:37.859Z,1008.33
2017-05-29T08:04:47.803Z,1008.36
2017-05-29T08:05:57.269Z,1008.28
2017-05-29T08:07:06.598Z,1008.31
2017-05-29T08:08:16.513Z,1008.34
2017-05-29T08:09:26.455Z,1008.29
2017-05-29T08:10:36.399Z,1008.32
2017-05-29T08:11:45.833Z,1008.34
2017-05-29T08:12:55.450Z,1008.35
2017-05-29T08:14:05.378Z,1008.29
2017-05-29T08:15:15.309Z,1008.31
2017-05-29T08:16:24.924Z,1008.27
2017-05-29T08:17:35.211Z,1008.28
2017-05-29T08:18:45.171Z,1008.3
2017-05-29T08:19:54.804Z,1008.32
2017-05-29T08:21:05.054Z,1008.31
2017-05-29T08:22:14.978Z,1008.29
2017-05-29T08:23:24.772Z,1008.33
2017-05-29T08:24:34.714Z,1008.33
2017-05-29T08:25:44.729Z,1008.3
2017-05-29T08:26:54.666Z,1008.26
2017-05-29T08:28:04.609Z,1008.23
2017-05-29T08:29:15.003Z,1008.22
2017-05-29T08:30:24.950Z,1008.22
2017-05-29T08:31:35.182Z,1008.18
2017-05-29T08:32:44.800Z,1008.12
2017-05-29T08:33:55.044Z,1008.14
2017-05-29T08:35:04.730Z,1008.12
2017-05-29T08:36:14.376Z,1008.11
2017-05-29T08:37:24.303Z,1008.12
2017-05-29T08:38:33.957Z,1008.13
2017-05-29T08:39:43.904Z,1008.11
2017-05-29T08:40:53.683Z,1008.1
2017-05-29T08:42:03.623Z,1008.07
2017-05-29T08:43:13.555Z,1008.04
2017-05-29T08:44:23.560Z,1008.07
2017-05-29T08:45:33.186Z,1008.08
2017-05-29T08:46:43.260Z,1008.04
2017-05-29T08:47:53.203Z,1008.01
2017-05-29T08:49:02.850Z,1008.04
2017-05-29T08:50:12.465Z,1008.04
2017-05-29T08:51:22.080Z,1008.01
2017-05-29T08:52:32.490Z,1008.02
2017-05-29T08:53:42.117Z,1008.03
2017-05-29T08:54:51.748Z,1008.02
2017-05-29T08:56:02.012Z,1008.05
2017-05-29T08:57:11.657Z,1008.03
2017-05-29T08:58:22.048Z,1008.07
2017-05-29T08:59:32.004Z,1008.01
2017-05-29T09:00:41.936Z,1008.03
2017-05-29T09:01:51.559Z,1008.01
2017-05-29T09:03:01.802Z,1007.99
2017-05-29T09:04:11.436Z,1008.01
2017-05-29T09:05:20.436Z,1007.94
2017-05-29T09:06:30.695Z,1007.95
2017-05-29T09:07:40.948Z,1007.93
2017-05-29T09:08:50.895Z,1007.96
2017-05-29T09:10:00.668Z,1007.96
2017-05-29T09:11:09.984Z,1007.98
2017-05-29T09:12:20.225Z,1007.93
2017-05-29T09:13:29.840Z,1007.95
2017-05-29T09:14:40.087Z,1007.93
2017-05-29T09:15:50.165Z,1007.9
2017-05-29T09:17:00.090Z,1007.92
2017-05-29T09:18:10.012Z,1007.83
2017-05-29T09:19:19.349Z,1007.85
2017-05-29T09:20:29.275Z,1007.8
2017-05-29T09:21:39.230Z,1007.8
2017-05-29T09:22:49.155Z,1007.8
2017-05-29T09:23:58.787Z,1007.82
2017-05-29T09:25:08.417Z,1007.8
2017-05-29T09:26:18.047Z,1007.75
2017-05-29T09:27:27.819Z,1007.75
2017-05-29T09:28:37.771Z,1007.73
2017-05-29T09:29:47.712Z,1007.69
2017-05-29T09:30:57.670Z,1007.68
2017-05-29T09:32:07.318Z,1007.67
2017-05-29T09:33:16.777Z,1007.63
2017-05-29T09:34:26.100Z,1007.6
2017-05-29T09:35:36.339Z,1007.66
2017-05-29T09:36:46.302Z,1007.64
2017-05-29T09:37:55.623Z,1007.59
2017-05-29T09:39:05.093Z,1007.62
2017-05-29T09:40:15.019Z,1007.61
2017-05-29T09:41:24.653Z,1007.57
2017-05-29T09:42:34.267Z,1007.6
2017-05-29T09:43:44.204Z,1007.57
2017-05-29T09:44:53.997Z,1007.58
2017-05-29T09:46:03.950Z,1007.58
2017-05-29T09:47:13.876Z,1007.58
2017-05-29T09:48:23.504Z,1007.62
2017-05-29T09:49:33.124Z,1007.56
2017-05-29T09:50:43.113Z,1007.55
2017-05-29T09:51:53.096Z,1007.6
2017-05-29T09:53:03.022Z,1007.55
2017-05-29T09:54:13.323Z,1007.52
2017-05-29T09:55:23.250Z,1007.52
2017-05-29T09:56:33.597Z,1007.49
2017-05-29T09:57:43.840Z,1007.52
2017-05-29T09:58:53.767Z,1007.49
2017-05-29T10:00:03.683Z,1007.51
2017-05-29T10:01:13.517Z,1007.51
2017-05-29T10:02:22.992Z,1007.48
2017-05-29T10:03:32.926Z,1007.52
2017-05-29T10:04:43.174Z,1007.5
2017-05-29T10:05:52.808Z,1007.47
2017-05-29T10:07:02.454Z,1007.45
2017-05-29T10:08:12.081Z,1007.44
2017-05-29T10:09:21.421Z,1007.43
2017-05-29T10:10:31.071Z,1007.42
2017-05-29T10:11:40.696Z,1007.44
2017-05-29T10:12:51.063Z,1007.38
2017-05-29T10:14:01.141Z,1007.38
2017-05-29T10:15:10.747Z,1007.36
2017-05-29T10:16:20.968Z,1007.37
2017-05-29T10:17:30.271Z,1007.29
2017-05-29T10:18:40.512Z,1007.26
2017-05-29T10:19:50.498Z,1007.3
2017-05-29T10:21:00.420Z,1007.26
2017-05-29T10:22:10.341Z,1007.21
2017-05-29T10:23:19.648Z,1007.19
2017-05-29T10:24:29.565Z,1007.23
2017-05-29T10:25:39.345Z,1007.15
2017-05-29T10:26:49.265Z,1007.11
2017-05-29T10:27:59.211Z,1007.17
2017-05-29T10:29:08.861Z,1007.17
2017-05-29T10:30:19.107Z,1007.19
2017-05-29T10:31:29.195Z,1007.17
2017-05-29T10:32:39.799Z,1007.13
2017-05-29T10:33:49.722Z,1007.13
2017-05-29T10:34:59.660Z,1007.15
2017-05-29T10:36:08.980Z,1007.08
2017-05-29T10:37:19.226Z,1007.13
2017-05-29T10:38:28.245Z,1007.1
2017-05-29T10:39:37.857Z,1007.07
2017-05-29T10:40:47.781Z,1007.06
2017-05-29T10:41:57.453Z,1007.05
2017-05-29T10:43:07.479Z,1007.04
2017-05-29T10:44:17.434Z,1007.01
2017-05-29T10:45:27.373Z,1006.98
2017-05-29T10:46:37.008Z,1006.98
2017-05-29T10:47:46.617Z,1007
2017-05-29T10:48:56.683Z,1006.96
2017-05-29T10:50:06.634Z,1006.96
2017-05-29T10:51:16.321Z,1007.05
2017-05-29T10:52:25.932Z,1007
2017-05-29T10:53:35.860Z,1006.99
2017-05-29T10:54:45.826Z,1006.99
2017-05-29T10:55:55.447Z,1006.96
2017-05-29T10:57:05.707Z,1006.93
2017-05-29T10:58:15.657Z,1006.92
2017-05-29T10:59:25.573Z,1006.93
2017-05-29T11:00:35.881Z,1006.87
2017-05-29T11:01:45.828Z,1006.83
2017-05-29T11:02:55.759Z,1006.83
2017-05-29T11:04:05.727Z,1006.87
2017-05-29T11:05:15.346Z,1006.86
2017-05-29T11:08:58.073Z,1006.93
2017-05-29T11:10:07.773Z,1006.92
2017-05-29T11:11:17.417Z,1006.86
2017-05-29T11:12:26.720Z,1006.86
2017-05-29T11:13:36.331Z,1006.9
2017-05-29T11:14:46.733Z,1006.9
2017-05-29T11:15:56.368Z,1006.89
2017-05-29T11:17:05.991Z,1006.87
2017-05-29T11:18:15.930Z,1006.89
2017-05-29T11:19:25.875Z,1006.85
2017-05-29T11:20:35.906Z,1006.8
2017-05-29T11:21:45.835Z,1006.8
2017-05-29T11:22:55.474Z,1006.74
2017-05-29T11:24:05.713Z,1006.74
2017-05-29T11:25:15.346Z,1006.73
2017-05-29T11:26:25.280Z,1006.73
2017-05-29T11:27:35.558Z,1006.74
2017-05-29T11:28:44.867Z,1006.75
2017-05-29T11:29:55.094Z,1006.64
2017-05-29T11:31:04.103Z,1006.59
2017-05-29T11:32:14.177Z,1006.59
2017-05-29T11:33:23.784Z,1006.68
2017-05-29T11:34:34.002Z,1006.67
2017-05-29T11:35:43.924Z,1006.6
2017-05-29T11:36:54.162Z,1006.65
2017-05-29T11:38:04.188Z,1006.66
2017-05-29T11:39:14.495Z,1006.63
2017-05-29T11:40:24.742Z,1006.62
2017-05-29T11:41:34.696Z,1006.62
2017-05-29T11:42:44.921Z,1006.61
2017-05-29T11:43:54.702Z,1006.54
2017-05-29T11:45:04.044Z,1006.5
2017-05-29T11:46:13.351Z,1006.56
2017-05-29T11:47:23.267Z,1006.58
2017-05-29T11:48:33.504Z,1006.5
2017-05-29T11:49:43.451Z,1006.55
2017-05-29T11:50:53.433Z,1006.55
2017-05-29T11:52:03.377Z,1006.54
2017-05-29T11:53:12.693Z,1006.52
2017-05-29T11:54:22.920Z,1006.52
2017-05-29T11:55:33.291Z,1006.47
2017-05-29T11:56:43.514Z,1006.46
2017-05-29T11:57:53.475Z,1006.38
2017-05-29T11:59:03.702Z,1006.4
2017-05-29T12:00:13.334Z,1006.37
2017-05-29T12:01:22.946Z,1006.45
2017-05-29T12:02:32.572Z,1006.43
2017-05-29T12:03:42.183Z,1006.39
2017-05-29T12:04:51.544Z,1006.36
2017-05-29T12:06:01.500Z,1006.34
2017-05-29T12:07:11.174Z,1006.41
2017-05-29T12:08:21.100Z,1006.38
2017-05-29T12:09:31.046Z,1006.35
2017-05-29T12:10:40.979Z,1006.34
2017-05-29T12:11:50.905Z,1006.35
2017-05-29T12:13:00.621Z,1006.31
2017-05-29T12:14:10.545Z,1006.37
2017-05-29T12:15:19.847Z,1006.28
2017-05-29T12:16:29.181Z,1006.27
2017-05-29T12:17:39.119Z,1006.29
2017-05-29T12:18:48.613Z,1006.24
2017-05-29T12:19:58.529Z,1006.25
2017-05-29T12:21:07.857Z,1006.26
2017-05-29T12:22:17.478Z,1006.22
2017-05-29T12:23:27.398Z,1006.2
2017-05-29T12:24:36.702Z,1006.24
2017-05-29T12:25:46.974Z,1006.21
2017-05-29T12:26:55.988Z,1006.23
2017-05-29T12:28:06.292Z,1006.24
2017-05-29T12:29:16.528Z,1006.26
2017-05-29T12:30:26.340Z,1006.26
2017-05-29T12:31:36.381Z,1006.2
2017-05-29T12:32:45.993Z,1006.26
2017-05-29T12:33:56.219Z,1006.23
2017-05-29T12:35:06.167Z,1006.22
2017-05-29T12:36:16.141Z,1006.26
2017-05-29T12:37:25.779Z,1006.22
2017-05-29T12:38:35.397Z,1006.19
2017-05-29T12:39:45.027Z,1006.25
2017-05-29T12:40:55.257Z,1006.25
2017-05-29T12:42:05.186Z,1006.2
2017-05-29T12:43:14.797Z,1006.19
2017-05-29T12:44:24.121Z,1006.14
2017-05-29T12:45:34.368Z,1006.11
2017-05-29T12:46:43.758Z,1006.19
2017-05-29T12:47:53.681Z,1006.18
2017-05-29T12:49:03.956Z,1006.21
2017-05-29T12:50:13.599Z,1006.17
2017-05-29T12:51:23.845Z,1006.17
2017-05-29T12:52:33.771Z,1006.15
2017-05-29T12:53:44.054Z,1006.13
2017-05-29T12:54:53.372Z,1006.1
2017-05-29T12:56:03.296Z,1006.14
2017-05-29T12:57:12.633Z,1006.11
2017-05-29T12:58:22.250Z,1006.15
2017-05-29T12:59:32.622Z,1006.13
2017-05-29T13:00:42.868Z,1006.17
2017-05-29T13:01:52.483Z,1006.07
2017-05-29T13:03:02.394Z,1006.09
2017-05-29T13:04:12.312Z,1006.07
2017-05-29T13:05:22.010Z,1006.06
2017-05-29T13:06:31.989Z,1006.04
2017-05-29T13:07:41.940Z,1005.96
2017-05-29T13:08:51.915Z,1006.03
2017-05-29T13:10:01.553Z,1006.01
2017-05-29T13:11:11.172Z,1005.96
2017-05-29T13:12:21.091Z,1006.01
2017-05-29T13:13:31.007Z,1006
2017-05-29T13:14:40.622Z,1005.94
2017-05-29T13:15:50.549Z,1005.95
2017-05-29T13:17:00.319Z,1006.01
2017-05-29T13:18:09.939Z,1006.02
2017-05-29T13:19:19.599Z,1006.05
2017-05-29T13:20:29.829Z,1006.03
2017-05-29T13:21:39.135Z,1006.09
2017-05-29T13:22:48.822Z,1006.03
2017-05-29T13:23:58.763Z,1006.01
2017-05-29T13:25:08.682Z,1006.01
2017-05-29T13:26:18.613Z,1006.06
2017-05-29T13:27:28.283Z,1006.02
2017-05-29T13:28:37.973Z,1005.96
2017-05-29T13:29:47.952Z,1005.91
2017-05-29T13:30:57.889Z,1005.89
2017-05-29T13:32:07.839Z,1005.92
2017-05-29T13:33:17.766Z,1005.94
2017-05-29T13:34:28.120Z,1005.99
2017-05-29T13:35:37.733Z,1005.97
2017-05-29T13:36:46.729Z,1005.98
2017-05-29T13:37:56.961Z,1005.91
2017-05-29T13:39:06.905Z,1005.92
2017-05-29T13:40:16.892Z,1005.94
2017-05-29T13:41:26.812Z,1005.92
2017-05-29T13:42:36.751Z,1005.93
2017-05-29T13:43:46.393Z,1005.92
2017-05-29T13:44:56.665Z,1005.92
2017-05-29T13:46:06.592Z,1005.93
2017-05-29T13:47:15.907Z,1005.87
2017-05-29T13:48:25.831Z,1005.85
2017-05-29T13:49:35.163Z,1005.86
2017-05-29T13:50:44.805Z,1005.86
2017-05-29T13:51:54.866Z,1005.9
2017-05-29T13:53:04.812Z,1005.84
2017-05-29T13:54:14.735Z,1005.81
2017-05-29T13:55:24.657Z,1005.81
2017-05-29T13:56:34.891Z,1005.79
2017-05-29T13:57:44.360Z,1005.76
2017-05-29T13:58:54.596Z,1005.74
2017-05-29T14:00:04.523Z,1005.77
2017-05-29T14:01:14.478Z,1005.8
2017-05-29T14:02:24.414Z,1005.73
2017-05-29T14:03:34.460Z,1005.71
2017-05-29T14:04:44.386Z,1005.71
2017-05-29T14:05:54.625Z,1005.7
2017-05-29T14:07:04.854Z,1005.7
2017-05-29T14:08:13.849Z,1005.67
2017-05-29T14:09:24.104Z,1005.77
2017-05-29T14:10:33.427Z,1005.73
2017-05-29T14:11:43.686Z,1005.74
2017-05-29T14:12:53.628Z,1005.72
2017-05-29T14:14:03.245Z,1005.69
2017-05-29T14:15:13.010Z,1005.74
2017-05-29T14:16:22.633Z,1005.71
2017-05-29T14:17:31.688Z,1005.63
2017-05-29T14:18:41.980Z,1005.65
2017-05-29T14:19:51.629Z,1005.62
2017-05-29T14:21:02.002Z,1005.67
2017-05-29T14:22:12.246Z,1005.62
2017-05-29T14:23:21.855Z,1005.65
2017-05-29T14:24:32.089Z,1005.6
2017-05-29T14:25:42.331Z,1005.55
2017-05-29T14:26:52.363Z,1005.53
2017-05-29T14:28:01.994Z,1005.52
2017-05-29T14:29:11.306Z,1005.56
2017-05-29T14:30:21.575Z,1005.54
2017-05-29T14:31:31.835Z,1005.53
2017-05-29T14:32:41.593Z,1005.47
2017-05-29T14:33:51.219Z,1005.49
2017-05-29T14:35:00.864Z,1005.47
2017-05-29T14:36:10.171Z,1005.46